Time,TemperatureF,DewpointF,PressureIn,WindDirection,WindDirectionDegrees,WindSpeedMPH,WindSpeedGustMPH,Humidity,HourlyPrecipIn,Conditions,Clouds,dailyrainin,SoftwareType,DateUTC
2013-06-24 00:00:00,69.1,52.7,30.03,SSW,202,5.8,5.8,56,0.00,CLR,,0.00,WeatherDisplay:10.37,2013-06-24 04:00:00,
2013-06-24 00:01:00,69.1,52.7,30.03,SE,135,5.8,5.8,56,0.00,CLR,,0.00,WeatherDisplay:10.37,2013-06-24 04:01:00,
2013-06-24 00:06:00,69.1,52.7,30.03,SSW,202,4.6,4.7,56,0.00,CLR,,0.00,WeatherDisplay:10.37,2013-06-24 04:06:00,
2013-06-24 00:11:00,69.1,52.7,30.03,WSW,248,4.6,4.6,56,0.00,CLR,,0.00,WeatherDisplay:10.37,2013-06-24 04:11:00,
2013-06-24 00:16:00,69.1,52.7,30.03,South,180,5.8,5.8,56,0.00,CLR,,0.00,WeatherDisplay:10.37,2013-06-24 04:16:00,
2013-06-24 00:21:00,69.1,52.7,30.03,SW,225,5.8,5.8,56,0.00,CLR,,0.00,WeatherDisplay:10.37,2013-06-24 04:21:00,
2013-06-24 00:26:00,69.1,52.7,30.03,SW,225,5.8,5.8,56,0.00,CLR,,0.00,WeatherDisplay:10.37,2013-06-24 04:26:00,
2013-06-24 00:31:00,69.1,52.7,30.03,WSW,248,8.1,8.1,56,0.00,CLR,,0.00,WeatherDisplay:10.37,2013-06-24 04:31:00,
2013-06-24 00:36:00,69.1,52.7,30.03,SW,225,6.9,6.9,56,0.00,CLR,,0.00,WeatherDisplay:10.37,2013-06-24 04:36:00,
2013-06-24 00:41:00,69.1,52.7,30.03,SSW,202,6.9,7.4,56,0.00,CLR,,0.00,WeatherDisplay:10.37,2013-06-24 04:41:00,
2013-06-24 00:46:00,68.9,52.6,30.03,WSW,248,5.8,5.8,56,0.00,CLR,,0.00,WeatherDisplay:10.37,2013-06-24 04:46:00,
2013-06-24 00:51:00,68.9,52.6,30.03,West,270,6.9,6.9,56,0.00,CLR,,0.00,WeatherDisplay:10.37,2013-06-24 04:51:00,
2013-06-24 00:56:00,68.9,52.6,30.03,SSW,202,3.5,3.6,56,0.00,CLR,,0.00,WeatherDisplay:10.37,2013-06-24 04:56:00,
2013-06-24 01:01:00,68.9,52.6,30.03,SW,225,6.9,6.9,56,0.00,CLR,,0.00,WeatherDisplay:10.37,2013-06-24 05:01:00,
2013-06-24 01:06:00,68.7,52.4,30.03,South,180,5.8,5.8,56,0.00,CLR,,0.00,WeatherDisplay:10.37,2013-06-24 05:06:00,
2013-06-24 01:11:00,68.7,52.4,30.03,SW,225,4.6,4.6,56,0.00,CLR,,0.00,WeatherDisplay:10.37,2013-06-24 05:11:00,
2013-06-24 01:16:00,68.7,52.4,30.03,WSW,248,8.1,8.1,56,0.00,CLR,,0.00,WeatherDisplay:10.37,2013-06-24 05:16:00,
2013-06-24 01:21:00,68.7,52.4,30.03,SSW,202,5.8,6.2,56,0.00,CLR,,0.00,WeatherDisplay:10.37,2013-06-24 05:21:00,
2013-06-24 01:26:00,68.7,52.4,30.02,South,180,4.6,4.9,56,0.00,CLR,,0.00,WeatherDisplay:10.37,2013-06-24 05:26:00,
2013-06-24 01:31:00,68.7,52.4,30.03,West,270,3.5,3.5,56,0.00,CLR,,0.00,WeatherDisplay:10.37,2013-06-24 05:31:00,
2013-06-24 01:36:00,68.5,52.7,30.02,SSW,202,3.5,3.5,57,0.00,CLR,,0.00,WeatherDisplay:10.37,2013-06-24 05:36:00,
2013-06-24 01:42:00,68.5,52.7,30.02,SSW,202,6.9,7.1,57,0.00,CLR,,0.00,WeatherDisplay:10.37,2013-06-24 05:42:00,
2013-06-24 01:47:00,68.5,52.7,30.02,WSW,248,9.2,9.2,57,0.00,CLR,,0.00,WeatherDisplay:10.37,2013-06-24 05:47:00,
2013-06-24 01:52:00,68.5,52.7,30.02,SSW,202,3.5,3.5,57,0.00,CLR,,0.00,WeatherDisplay:10.37,2013-06-24 05:52:00,
2013-06-24 01:57:00,68.5,52.7,30.02,SW,225,4.6,4.7,57,0.00,CLR,,0.00,WeatherDisplay:10.37,2013-06-24 05:57:00,
2013-06-24 02:02:00,68.5,52.7,30.02,WSW,248,6.9,6.9,57,0.00,CLR,,0.00,WeatherDisplay:10.37,2013-06-24 06:02:00,
2013-06-24 02:07:00,68.5,52.7,30.02,SW,225,6.9,6.9,57,0.00,CLR,,0.00,WeatherDisplay:10.37,2013-06-24 06:07:00,
2013-06-24 02:13:00,68.5,52.7,30.02,SW,225,5.8,5.8,57,0.00,CLR,,0.00,WeatherDisplay:10.37,2013-06-24 06:13:00,
2013-06-24 02:18:00,68.4,52.5,30.02,SW,225,4.6,4.6,57,0.00,CLR,,0.00,WeatherDisplay:10.37,2013-06-24 06:18:00,
2013-06-24 02:23:00,68.4,52.5,30.02,SSW,202,8.1,8.1,57,0.00,CLR,,0.00,WeatherDisplay:10.37,2013-06-24 06:23:00,
2013-06-24 02:28:00,68.4,52.5,30.00,WSW,248,7.4,7.4,57,0.00,CLR,,0.00,WeatherDisplay:10.37,2013-06-24 06:28:00,
2013-06-24 02:33:00,68.4,52.5,30.00,WSW,248,3.5,6.2,57,0.00,CLR,,0.00,WeatherDisplay:10.37,2013-06-24 06:33:00,
2013-06-24 02:39:00,68.4,52.5,30.00,SSE,158,6.9,6.9,57,0.00,CLR,,0.00,WeatherDisplay:10.37,2013-06-24 06:39:00,
2013-06-24 02:44:00,68.4,52.5,30.00,SSW,202,3.5,3.8,57,0.00,CLR,,0.00,WeatherDisplay:10.37,2013-06-24 06:44:00,
2013-06-24 02:49:00,68.4,52.5,30.00,SW,225,8.1,8.1,57,0.00,CLR,,0.00,WeatherDisplay:10.37,2013-06-24 06:49:00,
2013-06-24 02:54:00,68.4,52.5,30.00,WSW,248,4.6,4.7,57,0.00,CLR,,0.00,WeatherDisplay:10.37,2013-06-24 06:54:00,
2013-06-24 02:59:00,68.4,52.5,30.00,SSW,202,3.5,3.6,57,0.00,CLR,,0.00,WeatherDisplay:10.37,2013-06-24 06:59:00,
2013-06-24 03:04:00,68.4,52.5,30.00,SW,225,3.5,3.8,57,0.00,CLR,,0.00,WeatherDisplay:10.37,2013-06-24 07:04:00,
2013-06-24 03:10:00,68.5,52.7,30.02,South,180,6.9,6.9,57,0.00,CLR,,0.00,WeatherDisplay:10.37,2013-06-24 07:10:00,
2013-06-24 03:15:00,68.5,52.7,30.02,West,270,8.1,8.3,57,0.00,CLR,,0.00,WeatherDisplay:10.37,2013-06-24 07:15:00,
2013-06-24 03:21:00,68.7,52.9,30.00,SSW,202,4.6,4.6,57,0.00,CLR,,0.00,WeatherDisplay:10.37,2013-06-24 07:21:00,
2013-06-24 03:26:00,68.7,52.9,30.00,SW,225,8.1,8.1,57,0.00,CLR,,0.00,WeatherDisplay:10.37,2013-06-24 07:26:00,
2013-06-24 03:32:00,68.9,53.0,30.00,SW,225,11.5,11.5,57,0.00,CLR,,0.00,WeatherDisplay:10.37,2013-06-24 07:32:00,
2013-06-24 03:37:00,68.9,53.0,30.00,SW,225,5.8,5.8,57,0.00,CLR,,0.00,WeatherDisplay:10.37,2013-06-24 07:37:00,
2013-06-24 03:42:00,69.1,53.2,30.00,SW,225,4.6,4.6,57,0.00,CLR,,0.00,WeatherDisplay:10.37,2013-06-24 07:42:00,
2013-06-24 03:48:00,69.1,53.2,30.00,SW,225,2.3,2.9,57,0.00,CLR,,0.00,WeatherDisplay:10.37,2013-06-24 07:48:00,
2013-06-24 03:54:00,69.1,53.2,30.00,SSW,202,6.9,6.9,57,0.00,CLR,,0.00,WeatherDisplay:10.37,2013-06-24 07:54:00,
2013-06-24 04:00:00,69.1,53.2,30.00,SW,228,7.0,8.0,57,0.00,CLR,,0.00,WeatherDisplay:10.37,2013-06-24 08:00:00,
2013-06-24 04:05:00,69.1,53.2,30.00,SSE,158,8.1,8.5,57,0.00,CLR,,0.00,WeatherDisplay:10.37,2013-06-24 08:05:00,
2013-06-24 04:10:00,69.1,53.2,30.00,WSW,248,4.6,4.6,57,0.00,CLR,,0.00,WeatherDisplay:10.37,2013-06-24 08:10:00,
2013-06-24 04:15:00,69.1,53.2,30.00,SSW,202,4.6,4.6,57,0.00,CLR,,0.00,WeatherDisplay:10.37,2013-06-24 08:15:00,
2013-06-24 04:21:00,69.1,53.2,30.00,West,270,10.4,10.4,57,0.00,CLR,,0.00,WeatherDisplay:10.37,2013-06-24 08:21:00,
2013-06-24 04:26:00,69.1,53.2,30.00,SSW,202,6.9,6.9,57,0.00,CLR,,0.00,WeatherDisplay:10.37,2013-06-24 08:26:00,
2013-06-24 04:31:00,69.1,53.2,30.00,SW,225,3.5,3.5,57,0.00,CLR,,0.00,WeatherDisplay:10.37,2013-06-24 08:31:00,
2013-06-24 04:36:00,68.9,53.0,30.00,SW,225,5.8,5.8,57,0.00,CLR,,0.00,WeatherDisplay:10.37,2013-06-24 08:36:00,
2013-06-24 04:41:00,68.9,53.0,30.00,SSW,202,6.9,6.9,57,0.00,CLR,,0.00,WeatherDisplay:10.37,2013-06-24 08:41:00,
2013-06-24 04:47:00,68.9,53.0,29.99,SW,225,4.6,5.2,57,0.00,CLR,,0.00,WeatherDisplay:10.37,2013-06-24 08:47:00,
2013-06-24 04:52:00,68.7,52.9,29.99,SSW,202,4.6,4.7,57,0.00,CLR,,0.00,WeatherDisplay:10.37,2013-06-24 08:52:00,
2013-06-24 04:57:00,68.7,52.9,29.99,SSW,202,6.9,6.9,57,0.00,CLR,,0.00,WeatherDisplay:10.37,2013-06-24 08:57:00,
2013-06-24 05:03:00,68.7,52.9,29.99,SSW,202,4.6,4.6,57,0.00,CLR,,0.00,WeatherDisplay:10.37,2013-06-24 09:03:00,
2013-06-24 05:08:00,68.7,52.9,29.99,WSW,248,5.8,6.2,57,0.00,CLR,,0.00,WeatherDisplay:10.37,2013-06-24 09:08:00,
2013-06-24 05:13:00,68.7,52.9,29.99,West,270,5.8,5.8,57,0.00,CLR,,0.00,WeatherDisplay:10.37,2013-06-24 09:13:00,
2013-06-24 05:18:00,68.5,52.7,29.99,WSW,248,4.6,4.6,57,0.00,CLR,,0.00,WeatherDisplay:10.37,2013-06-24 09:18:00,
2013-06-24 05:23:00,68.7,52.9,29.99,WSW,248,4.6,4.6,57,0.00,CLR,,0.00,WeatherDisplay:10.37,2013-06-24 09:23:00,
2013-06-24 05:29:00,68.7,52.9,29.99,WSW,248,4.6,4.9,57,0.00,CLR,,0.00,WeatherDisplay:10.37,2013-06-24 09:29:00,
2013-06-24 05:34:00,68.5,52.7,29.98,South,180,4.6,4.6,57,0.00,CLR,,0.00,WeatherDisplay:10.37,2013-06-24 09:34:00,
2013-06-24 05:39:00,68.7,52.9,29.98,SSW,202,4.6,5.2,57,0.00,CLR,,0.00,WeatherDisplay:10.37,2013-06-24 09:39:00,
2013-06-24 05:45:00,68.5,52.7,29.98,SSW,202,3.5,3.5,57,0.00,CLR,,0.00,WeatherDisplay:10.37,2013-06-24 09:45:00,
2013-06-24 05:50:00,68.4,52.5,29.98,WSW,248,4.6,4.6,57,0.00,CLR,,0.00,WeatherDisplay:10.37,2013-06-24 09:50:00,
2013-06-24 05:55:00,68.4,52.5,29.98,WSW,248,3.5,3.5,57,0.00,CLR,,0.00,WeatherDisplay:10.37,2013-06-24 09:55:00,
2013-06-24 06:00:00,68.4,52.5,29.98,SSW,202,4.6,4.7,57,0.00,CLR,,0.00,WeatherDisplay:10.37,2013-06-24 10:00:00,
2013-06-24 06:05:00,68.2,52.4,29.97,WSW,248,8.1,8.1,57,0.00,CLR,,0.00,WeatherDisplay:10.37,2013-06-24 10:05:00,
2013-06-24 06:10:00,68.2,52.4,29.98,SSW,202,4.6,4.6,57,0.00,CLR,,0.00,WeatherDisplay:10.37,2013-06-24 10:10:00,
2013-06-24 06:15:00,68.2,52.4,29.98,SSW,202,5.8,5.8,57,0.00,CLR,,0.00,WeatherDisplay:10.37,2013-06-24 10:15:00,
2013-06-24 06:21:00,68.4,52.5,29.98,SSW,202,2.3,2.3,57,0.00,CLR,,0.00,WeatherDisplay:10.37,2013-06-24 10:21:00,
2013-06-24 06:26:00,68.4,52.5,29.97,SW,225,5.8,6.2,57,0.00,CLR,,0.00,WeatherDisplay:10.37,2013-06-24 10:26:00,
2013-06-24 06:31:00,68.2,52.4,29.97,SSW,202,6.9,6.9,57,0.00,CLR,,0.00,WeatherDisplay:10.37,2013-06-24 10:31:00,
2013-06-24 06:36:00,68.2,52.4,29.97,SSW,202,5.8,5.8,57,0.00,CLR,,0.00,WeatherDisplay:10.37,2013-06-24 10:36:00,
2013-06-24 06:41:00,68.2,52.4,29.95,SSW,202,4.6,4.6,57,0.00,CLR,,0.00,WeatherDisplay:10.37,2013-06-24 10:41:00,
2013-06-24 06:46:00,68.2,52.4,29.95,SW,225,5.8,5.8,57,0.00,CLR,,0.00,WeatherDisplay:10.37,2013-06-24 10:46:00,
2013-06-24 06:51:00,68.4,52.5,29.95,South,180,6.9,6.9,57,0.00,CLR,,0.00,WeatherDisplay:10.37,2013-06-24 10:51:00,
2013-06-24 06:56:00,68.4,52.5,29.97,SW,225,4.6,4.9,57,0.00,CLR,,0.00,WeatherDisplay:10.37,2013-06-24 10:56:00,
2013-06-24 07:01:00,68.4,52.5,29.97,NW,315,3.5,3.6,57,0.00,CLR,,0.00,WeatherDisplay:10.37,2013-06-24 11:01:00,
2013-06-24 07:06:00,68.5,52.7,29.97,SSW,202,6.9,6.9,57,0.00,CLR,,0.00,WeatherDisplay:10.37,2013-06-24 11:06:00,
2013-06-24 07:13:00,68.7,52.9,29.97,WSW,248,5.8,6.2,57,0.00,CLR,,0.00,WeatherDisplay:10.37,2013-06-24 11:13:00,
2013-06-24 07:18:00,68.7,52.9,29.97,SSW,202,4.6,4.6,57,0.00,CLR,,0.00,WeatherDisplay:10.37,2013-06-24 11:18:00,
2013-06-24 07:23:00,68.7,52.9,29.97,West,270,3.5,3.5,57,0.00,CLR,,0.00,WeatherDisplay:10.37,2013-06-24 11:23:00,
2013-06-24 07:28:00,68.7,52.4,29.98,SSW,202,2.3,2.9,56,0.00,CLR,,0.00,WeatherDisplay:10.37,2013-06-24 11:28:00,
2013-06-24 07:33:00,68.7,52.4,29.98,SSW,202,4.6,4.6,56,0.00,CLR,,0.00,WeatherDisplay:10.37,2013-06-24 11:33:00,
2013-06-24 07:39:00,68.7,52.4,29.97,SW,225,5.8,5.8,56,0.00,CLR,,0.00,WeatherDisplay:10.37,2013-06-24 11:39:00,
2013-06-24 07:44:00,68.9,52.6,29.97,West,270,4.6,4.6,56,0.00,CLR,,0.00,WeatherDisplay:10.37,2013-06-24 11:44:00,
2013-06-24 07:49:00,68.9,52.6,29.97,South,180,5.8,5.9,56,0.00,CLR,,0.00,WeatherDisplay:10.37,2013-06-24 11:49:00,
2013-06-24 07:54:00,69.1,52.7,29.98,SSW,202,2.3,2.3,56,0.00,CLR,,0.00,WeatherDisplay:10.37,2013-06-24 11:54:00,
2013-06-24 07:59:00,69.3,52.9,29.98,SW,225,3.5,3.5,56,0.00,CLR,,0.00,WeatherDisplay:10.37,2013-06-24 11:59:00,
2013-06-24 08:05:00,69.4,53.1,29.98,WSW,248,4.6,4.6,56,0.00,CLR,,0.00,WeatherDisplay:10.37,2013-06-24 12:05:00,
2013-06-24 08:10:00,69.6,53.2,29.98,SW,225,5.8,5.8,56,0.00,CLR,,0.00,WeatherDisplay:10.37,2013-06-24 12:10:00,
2013-06-24 08:15:00,69.6,52.7,29.98,WSW,248,2.3,2.9,55,0.00,CLR,,0.00,WeatherDisplay:10.37,2013-06-24 12:15:00,
2013-06-24 08:20:00,70.0,53.1,29.97,SSW,202,3.5,3.5,55,0.00,CLR,,0.00,WeatherDisplay:10.37,2013-06-24 12:20:00,
2013-06-24 08:25:00,70.3,53.4,29.98,South,180,3.5,3.5,55,0.00,CLR,,0.00,WeatherDisplay:10.37,2013-06-24 12:25:00,
2013-06-24 08:30:00,70.5,54.1,29.97,SSW,202,5.8,5.8,56,0.00,CLR,,0.00,WeatherDisplay:10.37,2013-06-24 12:30:00,
2013-06-24 08:36:00,70.9,54.4,29.97,West,270,8.1,8.1,56,0.00,CLR,,0.00,WeatherDisplay:10.37,2013-06-24 12:36:00,
2013-06-24 08:41:00,70.9,53.9,29.98,SSW,202,5.8,5.8,55,0.00,CLR,,0.00,WeatherDisplay:10.37,2013-06-24 12:41:00,
2013-06-24 08:46:00,71.1,54.1,29.97,SW,225,5.8,6.2,55,0.00,CLR,,0.00,WeatherDisplay:10.37,2013-06-24 12:46:00,
2013-06-24 08:51:00,71.2,54.2,29.97,SSW,202,5.8,5.8,55,0.00,CLR,,0.00,WeatherDisplay:10.37,2013-06-24 12:51:00,
2013-06-24 08:56:00,71.1,54.1,29.97,SSW,202,8.1,8.1,55,0.00,CLR,,0.00,WeatherDisplay:10.37,2013-06-24 12:56:00,
2013-06-24 09:02:00,71.1,54.1,29.97,SSW,202,3.5,3.6,55,0.00,CLR,,0.00,WeatherDisplay:10.37,2013-06-24 13:02:00,
2013-06-24 09:07:00,71.2,54.2,29.97,SW,225,4.6,4.6,55,0.00,CLR,,0.00,WeatherDisplay:10.37,2013-06-24 13:07:00,
2013-06-24 09:12:00,71.6,54.6,29.97,SW,225,5.8,5.8,55,0.00,CLR,,0.00,WeatherDisplay:10.37,2013-06-24 13:12:00,
2013-06-24 09:17:00,72.0,54.9,29.97,SSW,202,4.6,4.6,55,0.00,CLR,,0.00,WeatherDisplay:10.37,2013-06-24 13:17:00,
2013-06-24 09:22:00,72.1,55.6,29.95,SW,225,8.1,8.1,56,0.00,CLR,,0.00,WeatherDisplay:10.37,2013-06-24 13:22:00,
2013-06-24 09:27:00,72.3,55.7,29.95,SW,225,6.9,6.9,56,0.00,CLR,,0.00,WeatherDisplay:10.37,2013-06-24 13:27:00,
2013-06-24 09:33:00,72.9,56.7,29.95,SSW,202,5.8,5.8,57,0.00,CLR,,0.00,WeatherDisplay:10.37,2013-06-24 13:33:00,
2013-06-24 09:38:00,73.4,57.7,29.95,SSW,202,5.8,5.8,58,0.00,CLR,,0.00,WeatherDisplay:10.37,2013-06-24 13:38:00,
2013-06-24 09:45:00,73.9,58.7,29.95,South,180,5.8,6.0,59,0.00,CLR,,0.00,WeatherDisplay:10.37,2013-06-24 13:45:00,
2013-06-24 09:50:00,74.1,59.3,29.95,SSW,202,4.6,5.2,60,0.00,CLR,,0.00,WeatherDisplay:10.37,2013-06-24 13:50:00,
2013-06-24 09:55:00,74.5,59.2,29.95,South,180,4.6,4.6,59,0.00,CLR,,0.00,WeatherDisplay:10.37,2013-06-24 13:55:00,
2013-06-24 10:00:00,75.2,60.4,29.95,SW,225,5.8,5.8,60,0.00,CLR,,0.00,WeatherDisplay:10.37,2013-06-24 14:00:00,
2013-06-24 10:05:00,75.7,60.9,29.95,WSW,248,4.6,4.6,60,0.00,CLR,,0.00,WeatherDisplay:10.37,2013-06-24 14:05:00,
2013-06-24 10:13:00,75.9,61.0,29.95,SSW,202,5.8,6.2,60,0.00,CLR,,0.00,WeatherDisplay:10.37,2013-06-24 14:13:00,
2013-06-24 10:18:00,76.3,61.4,29.95,SW,225,5.8,5.8,60,0.00,CLR,,0.00,WeatherDisplay:10.37,2013-06-24 14:18:00,
2013-06-24 10:23:00,76.8,61.9,29.95,SSW,202,5.8,5.8,60,0.00,CLR,,0.00,WeatherDisplay:10.37,2013-06-24 14:23:00,
2013-06-24 10:28:00,77.5,62.6,29.95,West,270,8.1,8.1,60,0.00,CLR,,0.00,WeatherDisplay:10.37,2013-06-24 14:28:00,
2013-06-24 10:33:00,78.1,63.1,29.95,South,180,4.6,4.7,60,0.00,CLR,,0.00,WeatherDisplay:10.37,2013-06-24 14:33:00,
2013-06-24 10:39:00,78.8,63.3,29.95,WSW,248,3.5,3.5,59,0.00,CLR,,0.00,WeatherDisplay:10.37,2013-06-24 14:39:00,
2013-06-24 10:44:00,79.9,64.3,29.95,SSW,202,4.6,4.6,59,0.00,CLR,,0.00,WeatherDisplay:10.37,2013-06-24 14:44:00,
2013-06-24 10:49:00,80.4,64.8,29.95,WSW,248,4.6,4.6,59,0.00,CLR,,0.00,WeatherDisplay:10.37,2013-06-24 14:49:00,
2013-06-24 10:55:00,80.6,64.9,29.95,SW,225,3.5,3.5,59,0.00,CLR,,0.00,WeatherDisplay:10.37,2013-06-24 14:55:00,
2013-06-24 11:00:00,81.1,65.0,29.94,NW,315,3.5,3.5,58,0.00,CLR,,0.00,WeatherDisplay:10.37,2013-06-24 15:00:00,
2013-06-24 11:05:00,81.7,66.0,29.95,West,270,4.6,4.6,59,0.00,CLR,,0.00,WeatherDisplay:10.37,2013-06-24 15:05:00,
2013-06-24 11:10:00,82.0,65.8,29.95,SSW,202,2.3,2.9,58,0.00,CLR,,0.00,WeatherDisplay:10.37,2013-06-24 15:10:00,
2013-06-24 11:15:00,81.9,66.1,29.95,SSW,202,4.6,4.6,59,0.00,CLR,,0.00,WeatherDisplay:10.37,2013-06-24 15:15:00,
2013-06-24 11:21:00,82.4,66.1,29.94,SSW,202,2.3,2.6,58,0.00,CLR,,0.00,WeatherDisplay:10.37,2013-06-24 15:21:00,
2013-06-24 11:26:00,82.8,67.0,29.94,WSW,248,4.6,4.9,59,0.00,CLR,,0.00,WeatherDisplay:10.37,2013-06-24 15:26:00,
2013-06-24 11:31:00,82.8,67.0,29.94,SSW,202,5.8,5.8,59,0.00,CLR,,0.00,WeatherDisplay:10.37,2013-06-24 15:31:00,
2013-06-24 11:36:00,83.1,66.8,29.94,South,180,5.8,5.8,58,0.00,CLR,,0.00,WeatherDisplay:10.37,2013-06-24 15:36:00,
2013-06-24 11:41:00,83.5,68.1,29.94,SW,225,5.8,5.8,60,0.00,CLR,,0.00,WeatherDisplay:10.37,2013-06-24 15:41:00,
2013-06-24 11:46:00,83.5,68.1,29.94,WSW,248,5.8,5.8,60,0.00,CLR,,0.00,WeatherDisplay:10.37,2013-06-24 15:46:00,
2013-06-24 11:52:00,84.0,68.1,29.94,SSW,202,2.3,2.6,59,0.00,CLR,,0.00,WeatherDisplay:10.37,2013-06-24 15:52:00,
2013-06-24 11:57:00,84.2,68.8,29.94,SW,225,8.1,8.1,60,0.00,CLR,,0.00,WeatherDisplay:10.37,2013-06-24 15:57:00,
2013-06-24 12:02:00,84.7,68.8,29.94,SW,225,6.9,6.9,59,0.00,CLR,,0.00,WeatherDisplay:10.37,2013-06-24 16:02:00,
2013-06-24 12:07:00,85.3,69.3,29.94,WSW,248,4.6,4.6,59,0.00,CLR,,0.00,WeatherDisplay:10.37,2013-06-24 16:07:00,
2013-06-24 12:13:00,85.8,69.8,29.93,SW,225,4.6,4.6,59,0.00,CLR,,0.00,WeatherDisplay:10.37,2013-06-24 16:13:00,
2013-06-24 12:18:00,86.0,70.0,29.93,SW,225,4.6,4.6,59,0.00,CLR,,0.00,WeatherDisplay:10.37,2013-06-24 16:18:00,
2013-06-24 12:23:00,86.2,70.2,29.93,WSW,248,5.8,6.0,59,0.00,CLR,,0.00,WeatherDisplay:10.37,2013-06-24 16:23:00,
2013-06-24 12:28:00,86.4,70.3,29.93,SSW,202,4.6,4.6,59,0.00,CLR,,0.00,WeatherDisplay:10.37,2013-06-24 16:28:00,
2013-06-24 12:34:00,86.9,70.8,29.93,SW,225,5.8,5.8,59,0.00,CLR,,0.00,WeatherDisplay:10.37,2013-06-24 16:34:00,
2013-06-24 12:39:00,87.3,71.2,29.93,WSW,248,4.6,4.7,59,0.00,CLR,,0.00,WeatherDisplay:10.37,2013-06-24 16:39:00,
2013-06-24 12:45:00,87.4,70.8,29.92,South,180,4.6,4.6,58,0.00,CLR,,0.00,WeatherDisplay:10.37,2013-06-24 16:45:00,
2013-06-24 12:50:00,87.3,70.7,29.92,SW,225,6.9,6.9,58,0.00,CLR,,0.00,WeatherDisplay:10.37,2013-06-24 16:50:00,
2013-06-24 12:56:00,87.1,70.5,29.92,SW,225,4.6,4.6,58,0.00,CLR,,0.00,WeatherDisplay:10.37,2013-06-24 16:56:00,
2013-06-24 13:01:00,87.8,71.2,29.92,SSW,202,4.6,4.6,58,0.00,CLR,,0.00,WeatherDisplay:10.37,2013-06-24 17:01:00,
2013-06-24 13:06:00,87.8,71.2,29.92,WSW,248,3.5,3.8,58,0.00,CLR,,0.00,WeatherDisplay:10.37,2013-06-24 17:06:00,
2013-06-24 13:11:00,88.2,71.5,29.93,SW,225,2.3,2.4,58,0.00,CLR,,0.00,WeatherDisplay:10.37,2013-06-24 17:11:00,
2013-06-24 13:16:00,88.2,71.5,29.92,WSW,248,6.9,6.9,58,0.00,CLR,,0.00,WeatherDisplay:10.37,2013-06-24 17:16:00,
2013-06-24 13:21:00,88.2,71.5,29.92,SW,225,3.5,4.0,58,0.00,CLR,,0.00,WeatherDisplay:10.37,2013-06-24 17:21:00,
2013-06-24 13:27:00,88.3,71.7,29.92,SSW,202,6.9,6.9,58,0.00,CLR,,0.00,WeatherDisplay:10.37,2013-06-24 17:27:00,
2013-06-24 13:32:00,87.8,71.2,29.92,WSW,248,4.6,4.6,58,0.00,CLR,,0.00,WeatherDisplay:10.37,2013-06-24 17:32:00,
2013-06-24 13:37:00,87.4,70.8,29.92,North,0,4.6,4.6,58,0.00,CLR,,0.00,WeatherDisplay:10.37,2013-06-24 17:37:00,
2013-06-24 13:42:00,87.8,71.2,29.92,SSW,202,5.8,5.8,58,0.00,CLR,,0.00,WeatherDisplay:10.37,2013-06-24 17:42:00,
2013-06-24 13:48:00,87.4,70.8,29.92,South,180,8.1,8.1,58,0.00,CLR,,0.00,WeatherDisplay:10.37,2013-06-24 17:48:00,
2013-06-24 13:53:00,87.4,70.8,29.91,SW,225,6.4,6.4,58,0.00,CLR,,0.00,WeatherDisplay:10.37,2013-06-24 17:53:00,
2013-06-24 13:58:00,87.4,70.8,29.92,SW,225,5.8,10.5,58,0.00,CLR,,0.00,WeatherDisplay:10.37,2013-06-24 17:58:00,
2013-06-24 14:04:00,87.6,71.0,29.91,SW,225,5.8,5.8,58,0.00,CLR,,0.00,WeatherDisplay:10.37,2013-06-24 18:04:00,
2013-06-24 14:09:00,88.0,71.3,29.91,WSW,248,5.8,6.2,58,0.00,CLR,,0.00,WeatherDisplay:10.37,2013-06-24 18:09:00,
2013-06-24 14:14:00,88.3,71.7,29.91,SSW,202,8.1,8.1,58,0.00,CLR,,0.00,WeatherDisplay:10.37,2013-06-24 18:14:00,
2013-06-24 14:19:00,87.8,71.2,29.91,West,270,10.4,10.5,58,0.00,CLR,,0.00,WeatherDisplay:10.37,2013-06-24 18:19:00,
2013-06-24 14:25:00,87.4,70.8,29.91,WSW,248,8.1,8.1,58,0.00,CLR,,0.00,WeatherDisplay:10.37,2013-06-24 18:25:00,
2013-06-24 14:30:00,87.8,71.2,29.91,WSW,249,7.0,8.0,58,0.00,CLR,,0.00,WeatherDisplay:10.37,2013-06-24 18:30:00,
2013-06-24 14:35:00,87.4,70.8,29.91,SW,225,4.6,4.9,58,0.00,CLR,,0.00,WeatherDisplay:10.37,2013-06-24 18:35:00,
2013-06-24 14:40:00,87.3,70.7,29.90,West,270,5.8,5.8,58,0.00,CLR,,0.00,WeatherDisplay:10.37,2013-06-24 18:40:00,
2013-06-24 14:45:00,87.1,70.5,29.90,West,270,6.9,6.9,58,0.00,CLR,,0.00,WeatherDisplay:10.37,2013-06-24 18:45:00,
2013-06-24 14:50:00,87.4,70.8,29.90,WSW,248,4.6,4.7,58,0.00,CLR,,0.00,WeatherDisplay:10.37,2013-06-24 18:50:00,
2013-06-24 14:56:00,87.8,71.2,29.90,SSW,202,10.4,10.4,58,0.00,CLR,,0.00,WeatherDisplay:10.37,2013-06-24 18:56:00,
2013-06-24 15:01:00,87.8,71.2,29.90,WSW,248,5.8,5.8,58,0.00,CLR,,0.00,WeatherDisplay:10.37,2013-06-24 19:01:00,
2013-06-24 15:06:00,87.6,71.0,29.90,South,180,4.6,4.6,58,0.00,CLR,,0.00,WeatherDisplay:10.37,2013-06-24 19:06:00,
2013-06-24 15:11:00,87.6,71.0,29.90,West,270,4.6,4.7,58,0.00,CLR,,0.00,WeatherDisplay:10.37,2013-06-24 19:11:00,
2013-06-24 15:17:00,87.8,71.2,29.89,SSW,202,8.1,8.1,58,0.00,CLR,,0.00,WeatherDisplay:10.37,2013-06-24 19:17:00,
2013-06-24 15:22:00,87.4,70.8,29.89,SW,225,10.4,10.4,58,0.00,CLR,,0.00,WeatherDisplay:10.37,2013-06-24 19:22:00,
2013-06-24 15:27:00,87.1,70.5,29.89,SSW,202,4.6,4.6,58,0.00,CLR,,0.00,WeatherDisplay:10.37,2013-06-24 19:27:00,
2013-06-24 15:32:00,86.7,70.7,29.89,SW,225,6.9,6.9,59,0.00,CLR,,0.00,WeatherDisplay:10.37,2013-06-24 19:32:00,
2013-06-24 15:38:00,86.7,70.7,29.89,SSW,202,4.6,4.7,59,0.00,CLR,,0.00,WeatherDisplay:10.37,2013-06-24 19:38:00,
2013-06-24 15:43:00,86.7,70.7,29.88,SSW,202,4.6,4.6,59,0.00,CLR,,0.00,WeatherDisplay:10.37,2013-06-24 19:43:00,
2013-06-24 15:49:00,86.5,70.5,29.88,SSW,202,4.6,4.6,59,0.00,CLR,,0.00,WeatherDisplay:10.37,2013-06-24 19:49:00,
2013-06-24 15:54:00,86.0,70.0,29.88,West,270,5.8,5.8,59,0.00,CLR,,0.00,WeatherDisplay:10.37,2013-06-24 19:54:00,
2013-06-24 15:59:00,86.0,70.0,29.88,South,180,6.9,6.9,59,0.00,CLR,,0.00,WeatherDisplay:10.37,2013-06-24 19:59:00,
2013-06-24 16:04:00,85.8,69.8,29.87,WSW,248,5.6,5.6,59,0.00,CLR,,0.00,WeatherDisplay:10.37,2013-06-24 20:04:00,
2013-06-24 16:10:00,85.6,69.7,29.88,SSW,202,4.6,6.9,59,0.00,CLR,,0.00,WeatherDisplay:10.37,2013-06-24 20:10:00,
2013-06-24 16:15:00,85.5,69.5,29.87,SW,225,5.8,5.8,59,0.00,CLR,,0.00,WeatherDisplay:10.37,2013-06-24 20:15:00,
2013-06-24 16:20:00,85.3,69.3,29.87,SW,225,4.6,4.6,59,0.00,CLR,,0.00,WeatherDisplay:10.37,2013-06-24 20:20:00,
2013-06-24 16:25:00,85.5,69.5,29.87,SSE,158,4.6,4.6,59,0.00,CLR,,0.00,WeatherDisplay:10.37,2013-06-24 20:25:00,
2013-06-24 16:30:00,85.1,69.2,29.87,SW,225,4.6,4.6,59,0.00,CLR,,0.00,WeatherDisplay:10.37,2013-06-24 20:30:00,
2013-06-24 16:35:00,85.1,69.2,29.87,WNW,292,5.8,6.2,59,0.00,CLR,,0.00,WeatherDisplay:10.37,2013-06-24 20:35:00,
2013-06-24 16:40:00,84.9,69.0,29.87,West,270,5.4,5.4,59,0.00,CLR,,0.00,WeatherDisplay:10.37,2013-06-24 20:40:00,
2013-06-24 16:46:00,85.1,69.2,29.87,SW,225,8.1,8.1,59,0.00,CLR,,0.00,WeatherDisplay:10.37,2013-06-24 20:46:00,
2013-06-24 16:51:00,84.9,69.0,29.87,West,270,5.8,5.8,59,0.00,CLR,,0.00,WeatherDisplay:10.37,2013-06-24 20:51:00,
2013-06-24 16:56:00,84.7,69.3,29.86,WNW,292,6.9,6.9,60,0.00,CLR,,0.00,WeatherDisplay:10.37,2013-06-24 20:56:00,
2013-06-24 17:01:00,84.7,69.3,29.87,South,180,4.6,4.6,60,0.00,CLR,,0.00,WeatherDisplay:10.37,2013-06-24 21:01:00,
2013-06-24 17:06:00,84.6,69.1,29.86,SSW,202,5.8,5.8,60,0.00,CLR,,0.00,WeatherDisplay:10.37,2013-06-24 21:06:00,
2013-06-24 17:12:00,84.4,69.0,29.86,South,180,4.6,4.6,60,0.00,CLR,,0.00,WeatherDisplay:10.37,2013-06-24 21:12:00,
2013-06-24 17:17:00,84.2,68.8,29.86,SSW,202,5.8,5.9,60,0.00,CLR,,0.00,WeatherDisplay:10.37,2013-06-24 21:17:00,
2013-06-24 17:22:00,83.8,68.5,29.86,SSE,158,4.6,4.6,60,0.00,CLR,,0.00,WeatherDisplay:10.37,2013-06-24 21:22:00,
2013-06-24 17:28:00,83.5,68.1,29.86,WSW,248,3.5,3.5,60,0.00,CLR,,0.00,WeatherDisplay:10.37,2013-06-24 21:28:00,
2013-06-24 17:33:00,83.1,67.3,29.86,SSW,202,4.6,4.6,59,0.00,CLR,,0.00,WeatherDisplay:10.37,2013-06-24 21:33:00,
2013-06-24 17:39:00,82.6,66.8,29.86,SSW,202,8.1,8.1,59,0.00,CLR,,0.00,WeatherDisplay:10.37,2013-06-24 21:39:00,
2013-06-24 17:44:00,82.6,66.8,29.86,SW,225,8.1,8.1,59,0.00,CLR,,0.00,WeatherDisplay:10.37,2013-06-24 21:44:00,
2013-06-24 17:50:00,82.6,66.8,29.86,SW,230,6.0,8.0,59,0.00,CLR,,0.00,WeatherDisplay:10.37,2013-06-24 21:50:00,
2013-06-24 17:55:00,82.4,66.6,29.86,WSW,248,2.3,2.4,59,0.00,CLR,,0.00,WeatherDisplay:10.37,2013-06-24 21:55:00,
2013-06-24 18:00:00,82.4,66.6,29.86,SSW,202,5.8,5.8,59,0.00,CLR,,0.00,WeatherDisplay:10.37,2013-06-24 22:00:00,
2013-06-24 18:05:00,82.4,66.6,29.86,SSW,202,6.9,6.9,59,0.00,CLR,,0.00,WeatherDisplay:10.37,2013-06-24 22:05:00,
2013-06-24 18:10:00,82.4,66.6,29.85,West,270,11.5,11.5,59,0.00,CLR,,0.00,WeatherDisplay:10.37,2013-06-24 22:10:00,
2013-06-24 18:15:00,82.4,66.6,29.85,SSW,202,9.2,9.2,59,0.00,CLR,,0.00,WeatherDisplay:10.37,2013-06-24 22:15:00,
2013-06-24 18:21:00,82.2,66.5,29.85,WSW,248,8.1,8.1,59,0.00,CLR,,0.00,WeatherDisplay:10.37,2013-06-24 22:21:00,
2013-06-24 18:26:00,82.2,66.5,29.85,SW,225,5.8,5.9,59,0.00,CLR,,0.00,WeatherDisplay:10.37,2013-06-24 22:26:00,
2013-06-24 18:31:00,82.0,66.3,29.86,SSE,158,4.6,4.7,59,0.00,CLR,,0.00,WeatherDisplay:10.37,2013-06-24 22:31:00,
2013-06-24 18:36:00,81.9,66.1,29.86,West,270,4.6,4.9,59,0.00,CLR,,0.00,WeatherDisplay:10.37,2013-06-24 22:36:00,
2013-06-24 18:41:00,81.7,66.0,29.86,SW,225,4.6,4.9,59,0.00,CLR,,0.00,WeatherDisplay:10.37,2013-06-24 22:41:00,
2013-06-24 18:46:00,81.3,66.1,29.87,SW,225,3.5,3.5,60,0.00,CLR,,0.00,WeatherDisplay:10.37,2013-06-24 22:46:00,
2013-06-24 18:52:00,81.3,66.1,29.86,SSW,202,8.1,8.1,60,0.00,CLR,,0.00,WeatherDisplay:10.37,2013-06-24 22:52:00,
2013-06-24 18:57:00,81.1,65.9,29.86,SW,225,6.9,6.9,60,0.00,CLR,,0.00,WeatherDisplay:10.37,2013-06-24 22:57:00,
2013-06-24 19:03:00,81.1,65.9,29.86,SW,225,6.9,6.9,60,0.00,CLR,,0.00,WeatherDisplay:10.37,2013-06-24 23:03:00,
2013-06-24 19:09:00,81.1,65.9,29.86,SW,225,8.1,8.5,60,0.00,CLR,,0.00,WeatherDisplay:10.37,2013-06-24 23:09:00,
2013-06-24 19:14:00,81.3,66.1,29.86,WSW,248,6.9,6.9,60,0.00,CLR,,0.00,WeatherDisplay:10.37,2013-06-24 23:14:00,
2013-06-24 19:19:00,81.1,65.9,29.86,SW,225,10.4,10.7,60,0.00,CLR,,0.00,WeatherDisplay:10.37,2013-06-24 23:19:00,
2013-06-24 19:25:00,81.1,65.9,29.86,SW,225,5.8,6.2,60,0.00,CLR,,0.00,WeatherDisplay:10.37,2013-06-24 23:25:00,
2013-06-24 19:30:00,81.1,65.9,29.86,West,270,4.6,4.6,60,0.00,CLR,,0.00,WeatherDisplay:10.37,2013-06-24 23:30:00,
2013-06-24 19:35:00,81.0,65.8,29.86,SSW,202,4.6,4.6,60,0.00,CLR,,0.00,WeatherDisplay:10.37,2013-06-24 23:35:00,
2013-06-24 19:40:00,81.0,65.8,29.86,SW,225,4.6,4.7,60,0.00,CLR,,0.00,WeatherDisplay:10.37,2013-06-24 23:40:00,
2013-06-24 19:46:00,80.6,65.4,29.86,South,180,5.8,5.8,60,0.00,CLR,,0.00,WeatherDisplay:10.37,2013-06-24 23:46:00,
2013-06-24 19:51:00,80.4,65.3,29.86,SSW,202,4.6,4.6,60,0.00,CLR,,0.00,WeatherDisplay:10.37,2013-06-24 23:51:00,
2013-06-24 19:56:00,80.2,65.1,29.86,South,180,4.6,4.6,60,0.00,CLR,,0.00,WeatherDisplay:10.37,2013-06-24 23:56:00,
2013-06-24 20:01:00,80.1,64.9,29.86,West,270,4.6,4.6,60,0.00,CLR,,0.00,WeatherDisplay:10.37,2013-06-25 00:01:00,
2013-06-24 20:07:00,79.9,64.8,29.86,West,270,4.6,4.6,60,0.00,CLR,,0.00,WeatherDisplay:10.37,2013-06-25 00:07:00,
2013-06-24 20:12:00,79.7,64.6,29.87,SSW,202,2.3,2.3,60,0.00,CLR,,0.00,WeatherDisplay:10.37,2013-06-25 00:12:00,
2013-06-24 20:18:00,79.5,64.4,29.87,SW,225,4.6,4.6,60,0.00,CLR,,0.00,WeatherDisplay:10.37,2013-06-25 00:18:00,
2013-06-24 20:23:00,79.5,64.4,29.87,SW,225,4.6,4.6,60,0.00,CLR,,0.00,WeatherDisplay:10.37,2013-06-25 00:23:00,
2013-06-24 20:28:00,79.3,64.2,29.87,South,180,4.5,4.5,60,0.00,CLR,,0.00,WeatherDisplay:10.37,2013-06-25 00:28:00,
2013-06-24 20:33:00,79.2,64.1,29.88,SW,225,2.3,2.4,60,0.00,CLR,,0.00,WeatherDisplay:10.37,2013-06-25 00:33:00,
2013-06-24 20:39:00,79.2,64.1,29.87,SSW,202,2.3,2.3,60,0.00,CLR,,0.00,WeatherDisplay:10.37,2013-06-25 00:39:00,
2013-06-24 20:44:00,79.0,63.9,29.88,South,180,4.6,4.6,60,0.00,CLR,,0.00,WeatherDisplay:10.37,2013-06-25 00:44:00,
2013-06-24 20:49:00,79.0,63.9,29.87,West,270,3.5,3.5,60,0.00,CLR,,0.00,WeatherDisplay:10.37,2013-06-25 00:49:00,
2013-06-24 20:54:00,78.8,63.7,29.88,SW,225,4.6,4.7,60,0.00,CLR,,0.00,WeatherDisplay:10.37,2013-06-25 00:54:00,
2013-06-24 20:59:00,78.8,63.3,29.88,SW,225,3.5,3.5,59,0.00,CLR,,0.00,WeatherDisplay:10.37,2013-06-25 00:59:00,
2013-06-24 21:04:00,78.6,63.6,29.89,West,270,4.6,4.7,60,0.00,CLR,,0.00,WeatherDisplay:10.37,2013-06-25 01:04:00,
2013-06-24 21:10:00,78.6,63.6,29.88,WSW,246,2.0,5.0,60,0.00,CLR,,0.00,WeatherDisplay:10.37,2013-06-25 01:10:00,
2013-06-24 21:15:00,78.4,63.4,29.89,NNW,338,4.6,4.6,60,0.00,CLR,,0.00,WeatherDisplay:10.37,2013-06-25 01:15:00,
2013-06-24 21:20:00,78.4,63.4,29.88,WSW,248,2.3,2.4,60,0.00,CLR,,0.00,WeatherDisplay:10.37,2013-06-25 01:20:00,
2013-06-24 21:25:00,78.4,63.4,29.89,SW,225,8.1,8.1,60,0.00,CLR,,0.00,WeatherDisplay:10.37,2013-06-25 01:25:00,
2013-06-24 21:30:00,78.3,63.2,29.89,NW,315,2.3,2.6,60,0.00,CLR,,0.00,WeatherDisplay:10.37,2013-06-25 01:30:00,
2013-06-24 21:36:00,78.1,63.1,29.90,NNW,338,5.8,5.8,60,0.00,CLR,,0.00,WeatherDisplay:10.37,2013-06-25 01:36:00,
2013-06-24 21:41:00,78.3,63.2,29.91,NW,315,6.9,6.9,60,0.00,CLR,,0.00,WeatherDisplay:10.37,2013-06-25 01:41:00,
2013-06-24 21:46:00,78.4,63.4,29.91,NW,315,11.5,11.5,60,0.00,CLR,,0.00,WeatherDisplay:10.37,2013-06-25 01:46:00,
2013-06-24 21:51:00,78.4,63.4,29.91,NNW,338,6.9,6.9,60,0.00,CLR,,0.00,WeatherDisplay:10.37,2013-06-25 01:51:00,
2013-06-24 21:57:00,78.3,63.2,29.91,North,0,5.8,5.8,60,0.00,CLR,,0.00,WeatherDisplay:10.37,2013-06-25 01:57:00,
2013-06-24 22:02:00,78.1,63.1,29.94,NNW,338,2.3,2.4,60,0.00,CLR,,0.00,WeatherDisplay:10.37,2013-06-25 02:02:00,
2013-06-24 22:08:00,77.4,62.4,29.95,NW,315,8.1,8.1,60,0.00,CLR,,0.00,WeatherDisplay:10.37,2013-06-25 02:08:00,
2013-06-24 22:13:00,76.5,62.0,29.95,WNW,292,8.1,8.1,61,0.00,CLR,,0.00,WeatherDisplay:10.37,2013-06-25 02:13:00,
2013-06-24 22:18:00,75.2,60.8,29.94,NW,315,10.4,10.4,61,0.02,RA,,0.02,WeatherDisplay:10.37,2013-06-25 02:18:00,
2013-06-24 22:23:00,73.9,59.6,29.92,NNW,338,4.6,4.9,61,0.02,RA,,0.02,WeatherDisplay:10.37,2013-06-25 02:23:00,
2013-06-24 22:29:00,73.0,58.8,29.92,NNW,338,4.6,4.7,61,0.02,,,0.02,WeatherDisplay:10.37,2013-06-25 02:29:00,
2013-06-24 22:34:00,72.5,58.3,29.92,West,270,4.6,4.6,61,0.02,CLR,,0.02,WeatherDisplay:10.37,2013-06-25 02:34:00,
2013-06-24 22:39:00,72.1,57.9,29.91,NNW,338,6.9,6.9,61,0.03,RA,,0.03,WeatherDisplay:10.37,2013-06-25 02:39:00,
2013-06-24 22:44:00,72.0,57.8,29.91,North,0,4.6,4.6,61,0.03,RA,,0.03,WeatherDisplay:10.37,2013-06-25 02:44:00,
2013-06-24 22:49:00,71.6,57.4,29.91,NNW,338,4.6,4.6,61,0.03,CLR,,0.03,WeatherDisplay:10.37,2013-06-25 02:49:00,
2013-06-24 22:55:00,71.6,57.4,29.90,NNW,338,4.6,4.6,61,0.03,CLR,,0.03,WeatherDisplay:10.37,2013-06-25 02:55:00,
2013-06-24 23:00:00,71.6,57.4,29.89,NNW,338,1.2,1.2,61,0.03,CLR,,0.03,WeatherDisplay:10.37,2013-06-25 03:00:00,
2013-06-24 23:06:00,71.6,57.4,29.89,NNW,338,2.3,2.3,61,0.03,CLR,,0.03,WeatherDisplay:10.37,2013-06-25 03:06:00,
2013-06-24 23:11:00,71.4,57.3,29.89,NW,315,3.5,4.0,61,0.03,CLR,,0.03,WeatherDisplay:10.37,2013-06-25 03:11:00,
2013-06-24 23:17:00,71.4,57.7,29.89,NW,315,3.5,3.5,62,0.01,CLR,,0.03,WeatherDisplay:10.37,2013-06-25 03:17:00,
2013-06-24 23:22:00,71.4,57.3,29.89,NW,315,2.3,2.6,61,0.01,CLR,,0.03,WeatherDisplay:10.37,2013-06-25 03:22:00,
2013-06-24 23:27:00,71.2,57.5,29.88,NNE,22,3.5,3.5,62,0.01,CLR,,0.03,WeatherDisplay:10.37,2013-06-25 03:27:00,
2013-06-24 23:33:00,71.2,57.5,29.88,NW,315,2.3,2.3,62,0.01,CLR,,0.03,WeatherDisplay:10.37,2013-06-25 03:33:00,
2013-06-24 23:38:00,71.1,57.4,29.88,WNW,292,2.3,2.3,62,0.00,CLR,,0.03,WeatherDisplay:10.37,2013-06-25 03:38:00,
2013-06-24 23:44:00,70.9,57.2,29.88,West,270,2.3,2.3,62,0.00,CLR,,0.03,WeatherDisplay:10.37,2013-06-25 03:44:00,
2013-06-24 23:49:00,70.9,57.2,29.88,North,0,1.2,1.2,62,0.00,CLR,,0.03,WeatherDisplay:10.37,2013-06-25 03:49:00,
2013-06-24 23:54:00,70.9,57.2,29.88,WNW,292,1.2,1.2,62,0.00,CLR,,0.03,WeatherDisplay:10.37,2013-06-25 03:54:00,
2013-06-24 23:59:00,70.9,57.2,29.88,West,270,0.0,0.0,62,0.00,CLR,,0.03,WeatherDisplay:10.37,2013-06-25 03:59:00,